Terminal Aerodrome Forecast
Issued by NWS

Home | Current Version | Previous Version | Text Only | Print | Product List | Glossary On
Versions: 1 2 3 4 5 6 7 8 9 10 11 12 13 14
000
FTUS41 KBTV 191700
TAFRUT
TAF
KRUT 191721Z 1918/2018 VRB04KT P6SM SKC
     FM200000 15008KT P6SM SKC
     FM200800 15008KT P6SM SKC WS020/20030KT
     FM201400 22010G20KT P6SM SCT030
      AMD LTD TO CLD VIS AND WIND=

USA.gov is the U.S. government's official web portal to all federal, state and local government web resources and services.